sensor_id;sensor_type;location;lat;lon;timestamp;P1;durP1;ratioP1;P2;durP2;ratioP2
56269;SDS011;42176;43.240;27.880;2023-04-29T00:01:17;4.00;;;2.20;;
56269;SDS011;42176;43.240;27.880;2023-04-29T00:03:43;3.70;;;2.20;;
56269;SDS011;42176;43.240;27.880;2023-04-29T00:06:08;3.80;;;2.47;;
56269;SDS011;42176;43.240;27.880;2023-04-29T00:08:35;6.25;;;1.90;;
56269;SDS011;42176;43.240;27.880;2023-04-29T00:11:01;3.05;;;2.28;;
56269;SDS011;42176;43.240;27.880;2023-04-29T00:13:26;2.30;;;2.08;;
56269;SDS011;42176;43.240;27.880;2023-04-29T00:15:52;5.53;;;2.15;;
56269;SDS011;42176;43.240;27.880;2023-04-29T00:18:17;10.30;;;2.40;;
56269;SDS011;42176;43.240;27.880;2023-04-29T00:20:43;3.40;;;2.40;;
56269;SDS011;42176;43.240;27.880;2023-04-29T00:23:08;2.67;;;2.45;;
56269;SDS011;42176;43.240;27.880;2023-04-29T00:25:34;3.35;;;2.47;;
56269;SDS011;42176;43.240;27.880;2023-04-29T00:28:00;7.70;;;2.67;;
56269;SDS011;42176;43.240;27.880;2023-04-29T00:30:29;3.35;;;2.60;;
56269;SDS011;42176;43.240;27.880;2023-04-29T00:32:56;2.83;;;2.40;;
56269;SDS011;42176;43.240;27.880;2023-04-29T00:35:21;5.05;;;2.20;;
56269;SDS011;42176;43.240;27.880;2023-04-29T00:37:47;5.93;;;2.78;;
56269;SDS011;42176;43.240;27.880;2023-04-29T00:40:12;5.10;;;2.38;;
56269;SDS011;42176;43.240;27.880;2023-04-29T00:42:39;4.57;;;3.00;;
56269;SDS011;42176;43.240;27.880;2023-04-29T00:45:05;4.07;;;3.05;;
56269;SDS011;42176;43.240;27.880;2023-04-29T00:47:31;5.43;;;2.90;;
56269;SDS011;42176;43.240;27.880;2023-04-29T00:49:57;8.55;;;3.08;;
56269;SDS011;42176;43.240;27.880;2023-04-29T00:52:22;4.13;;;2.55;;
56269;SDS011;42176;43.240;27.880;2023-04-29T00:54:49;5.25;;;1.98;;
56269;SDS011;42176;43.240;27.880;2023-04-29T00:57:15;5.72;;;2.25;;
56269;SDS011;42176;43.240;27.880;2023-04-29T00:59:40;5.55;;;2.40;;
56269;SDS011;42176;43.240;27.880;2023-04-29T01:02:06;3.65;;;2.63;;
56269;SDS011;42176;43.240;27.880;2023-04-29T01:04:32;6.15;;;3.08;;
56269;SDS011;42176;43.240;27.880;2023-04-29T01:14:53;5.80;;;2.90;;
56269;SDS011;42176;43.240;27.880;2023-04-29T01:17:25;4.07;;;2.50;;
56269;SDS011;42176;43.240;27.880;2023-04-29T01:19:55;5.05;;;2.35;;
56269;SDS011;42176;43.240;27.880;2023-04-29T01:22:22;7.72;;;3.08;;
56269;SDS011;42176;43.240;27.880;2023-04-29T01:24:49;3.38;;;2.53;;
56269;SDS011;42176;43.240;27.880;2023-04-29T01:30:02;5.80;;;4.28;;
56269;SDS011;42176;43.240;27.880;2023-04-29T01:32:51;8.35;;;2.97;;
56269;SDS011;42176;43.240;27.880;2023-04-29T01:43:35;4.38;;;2.22;;
56269;SDS011;42176;43.240;27.880;2023-04-29T01:46:05;3.97;;;2.22;;
56269;SDS011;42176;43.240;27.880;2023-04-29T01:48:33;7.40;;;2.45;;
56269;SDS011;42176;43.240;27.880;2023-04-29T01:50:58;3.17;;;2.45;;
56269;SDS011;42176;43.240;27.880;2023-04-29T01:53:24;3.38;;;2.83;;
56269;SDS011;42176;43.240;27.880;2023-04-29T01:55:49;4.13;;;2.58;;
56269;SDS011;42176;43.240;27.880;2023-04-29T01:58:14;5.75;;;3.15;;
56269;SDS011;42176;43.240;27.880;2023-04-29T02:00:40;3.75;;;2.75;;
56269;SDS011;42176;43.240;27.880;2023-04-29T02:03:06;4.28;;;2.67;;
56269;SDS011;42176;43.240;27.880;2023-04-29T02:05:32;4.55;;;3.03;;
56269;SDS011;42176;43.240;27.880;2023-04-29T02:07:58;2.72;;;1.77;;
56269;SDS011;42176;43.240;27.880;2023-04-29T02:10:25;4.05;;;3.00;;
56269;SDS011;42176;43.240;27.880;2023-04-29T02:12:50;3.63;;;2.40;;
56269;SDS011;42176;43.240;27.880;2023-04-29T02:15:16;6.25;;;2.63;;
56269;SDS011;42176;43.240;27.880;2023-04-29T02:17:42;3.42;;;2.53;;
56269;SDS011;42176;43.240;27.880;2023-04-29T02:20:08;4.32;;;2.55;;
56269;SDS011;42176;43.240;27.880;2023-04-29T02:22:34;6.82;;;2.97;;
56269;SDS011;42176;43.240;27.880;2023-04-29T02:25:00;3.60;;;2.47;;
56269;SDS011;42176;43.240;27.880;2023-04-29T02:27:25;4.22;;;2.30;;
56269;SDS011;42176;43.240;27.880;2023-04-29T02:29:51;5.40;;;2.35;;
56269;SDS011;42176;43.240;27.880;2023-04-29T02:32:16;5.10;;;2.70;;
56269;SDS011;42176;43.240;27.880;2023-04-29T02:34:44;6.32;;;2.85;;
56269;SDS011;42176;43.240;27.880;2023-04-29T02:37:10;5.78;;;1.77;;
56269;SDS011;42176;43.240;27.880;2023-04-29T02:39:35;3.33;;;2.63;;
56269;SDS011;42176;43.240;27.880;2023-04-29T02:42:00;9.65;;;2.10;;
56269;SDS011;42176;43.240;27.880;2023-04-29T02:44:27;7.30;;;2.88;;
56269;SDS011;42176;43.240;27.880;2023-04-29T02:46:52;3.70;;;2.65;;
56269;SDS011;42176;43.240;27.880;2023-04-29T02:49:18;5.03;;;1.80;;
56269;SDS011;42176;43.240;27.880;2023-04-29T02:51:43;2.42;;;1.85;;
56269;SDS011;42176;43.240;27.880;2023-04-29T02:54:09;4.63;;;2.08;;
56269;SDS011;42176;43.240;27.880;2023-04-29T02:56:35;8.70;;;2.97;;
56269;SDS011;42176;43.240;27.880;2023-04-29T02:59:01;4.57;;;3.00;;
56269;SDS011;42176;43.240;27.880;2023-04-29T03:01:26;6.80;;;2.88;;
56269;SDS011;42176;43.240;27.880;2023-04-29T03:03:53;11.98;;;2.70;;
56269;SDS011;42176;43.240;27.880;2023-04-29T03:06:19;4.35;;;2.38;;
56269;SDS011;42176;43.240;27.880;2023-04-29T03:08:44;4.82;;;2.70;;
56269;SDS011;42176;43.240;27.880;2023-04-29T03:11:10;2.45;;;1.92;;
56269;SDS011;42176;43.240;27.880;2023-04-29T03:13:36;2.67;;;1.88;;
56269;SDS011;42176;43.240;27.880;2023-04-29T03:16:02;2.85;;;2.08;;
56269;SDS011;42176;43.240;27.880;2023-04-29T03:18:28;5.00;;;2.38;;
56269;SDS011;42176;43.240;27.880;2023-04-29T03:20:53;5.53;;;2.55;;
56269;SDS011;42176;43.240;27.880;2023-04-29T03:23:18;5.18;;;2.22;;
56269;SDS011;42176;43.240;27.880;2023-04-29T03:25:44;3.13;;;1.38;;
56269;SDS011;42176;43.240;27.880;2023-04-29T03:28:09;3.50;;;1.85;;
56269;SDS011;42176;43.240;27.880;2023-04-29T03:30:35;2.15;;;1.80;;
56269;SDS011;42176;43.240;27.880;2023-04-29T03:33:00;5.95;;;2.47;;
56269;SDS011;42176;43.240;27.880;2023-04-29T03:35:26;3.47;;;2.55;;
56269;SDS011;42176;43.240;27.880;2023-04-29T03:37:51;3.90;;;2.30;;
56269;SDS011;42176;43.240;27.880;2023-04-29T03:40:17;5.00;;;2.30;;
56269;SDS011;42176;43.240;27.880;2023-04-29T03:42:43;4.32;;;2.45;;
56269;SDS011;42176;43.240;27.880;2023-04-29T03:45:08;4.53;;;2.65;;
56269;SDS011;42176;43.240;27.880;2023-04-29T03:47:38;2.40;;;2.20;;
56269;SDS011;42176;43.240;27.880;2023-04-29T03:50:04;3.40;;;2.35;;
56269;SDS011;42176;43.240;27.880;2023-04-29T03:52:31;4.18;;;2.50;;
56269;SDS011;42176;43.240;27.880;2023-04-29T03:54:56;8.40;;;1.48;;
56269;SDS011;42176;43.240;27.880;2023-04-29T03:57:22;3.30;;;2.38;;
56269;SDS011;42176;43.240;27.880;2023-04-29T03:59:47;5.85;;;2.75;;
56269;SDS011;42176;43.240;27.880;2023-04-29T04:02:14;6.97;;;2.42;;
56269;SDS011;42176;43.240;27.880;2023-04-29T04:04:40;4.90;;;2.03;;
56269;SDS011;42176;43.240;27.880;2023-04-29T04:07:06;6.78;;;2.53;;
56269;SDS011;42176;43.240;27.880;2023-04-29T04:09:31;2.75;;;2.30;;
56269;SDS011;42176;43.240;27.880;2023-04-29T04:11:57;6.70;;;2.83;;
56269;SDS011;42176;43.240;27.880;2023-04-29T04:14:23;4.72;;;2.95;;
56269;SDS011;42176;43.240;27.880;2023-04-29T04:16:48;3.20;;;2.88;;
56269;SDS011;42176;43.240;27.880;2023-04-29T04:19:15;14.48;;;6.15;;
56269;SDS011;42176;43.240;27.880;2023-04-29T04:21:40;2.15;;;1.95;;
56269;SDS011;42176;43.240;27.880;2023-04-29T04:24:06;5.78;;;2.80;;
56269;SDS011;42176;43.240;27.880;2023-04-29T04:26:32;4.43;;;2.67;;
56269;SDS011;42176;43.240;27.880;2023-04-29T04:28:57;6.70;;;2.67;;
56269;SDS011;42176;43.240;27.880;2023-04-29T04:31:23;3.72;;;2.30;;
56269;SDS011;42176;43.240;27.880;2023-04-29T04:33:49;4.95;;;3.20;;
56269;SDS011;42176;43.240;27.880;2023-04-29T04:36:15;9.15;;;2.90;;
56269;SDS011;42176;43.240;27.880;2023-04-29T04:38:40;4.10;;;2.90;;
56269;SDS011;42176;43.240;27.880;2023-04-29T04:41:06;6.90;;;2.47;;
56269;SDS011;42176;43.240;27.880;2023-04-29T04:43:34;4.35;;;2.35;;
56269;SDS011;42176;43.240;27.880;2023-04-29T04:46:00;4.43;;;2.60;;
56269;SDS011;42176;43.240;27.880;2023-04-29T04:48:34;5.20;;;2.58;;
56269;SDS011;42176;43.240;27.880;2023-04-29T04:51:06;5.18;;;2.88;;
56269;SDS011;42176;43.240;27.880;2023-04-29T04:53:35;5.38;;;2.90;;
56269;SDS011;42176;43.240;27.880;2023-04-29T04:56:01;4.47;;;3.47;;
56269;SDS011;42176;43.240;27.880;2023-04-29T04:58:27;4.53;;;2.78;;
56269;SDS011;42176;43.240;27.880;2023-04-29T05:00:53;5.40;;;2.83;;
56269;SDS011;42176;43.240;27.880;2023-04-29T05:03:18;6.13;;;2.95;;
56269;SDS011;42176;43.240;27.880;2023-04-29T05:05:44;4.82;;;2.90;;
56269;SDS011;42176;43.240;27.880;2023-04-29T05:08:09;2.85;;;2.53;;
56269;SDS011;42176;43.240;27.880;2023-04-29T05:10:35;5.75;;;3.30;;
56269;SDS011;42176;43.240;27.880;2023-04-29T05:13:01;8.40;;;2.97;;
56269;SDS011;42176;43.240;27.880;2023-04-29T05:15:26;4.55;;;3.47;;
56269;SDS011;42176;43.240;27.880;2023-04-29T05:17:52;5.68;;;4.10;;
56269;SDS011;42176;43.240;27.880;2023-04-29T05:20:17;4.70;;;2.75;;
56269;SDS011;42176;43.240;27.880;2023-04-29T05:22:44;5.63;;;2.80;;
56269;SDS011;42176;43.240;27.880;2023-04-29T05:25:09;7.38;;;3.30;;
56269;SDS011;42176;43.240;27.880;2023-04-29T05:27:35;3.85;;;3.05;;
56269;SDS011;42176;43.240;27.880;2023-04-29T05:30:00;3.88;;;3.05;;
56269;SDS011;42176;43.240;27.880;2023-04-29T05:32:26;3.95;;;2.30;;
56269;SDS011;42176;43.240;27.880;2023-04-29T05:34:51;4.57;;;2.92;;
56269;SDS011;42176;43.240;27.880;2023-04-29T05:37:17;4.35;;;3.40;;
56269;SDS011;42176;43.240;27.880;2023-04-29T05:39:42;7.78;;;2.95;;
56269;SDS011;42176;43.240;27.880;2023-04-29T05:42:08;4.10;;;2.83;;
56269;SDS011;42176;43.240;27.880;2023-04-29T05:44:33;4.88;;;2.90;;
56269;SDS011;42176;43.240;27.880;2023-04-29T05:46:59;4.65;;;2.83;;
56269;SDS011;42176;43.240;27.880;2023-04-29T05:49:24;5.05;;;2.83;;
56269;SDS011;42176;43.240;27.880;2023-04-29T05:51:49;2.50;;;2.28;;
56269;SDS011;42176;43.240;27.880;2023-04-29T05:54:15;3.17;;;2.30;;
56269;SDS011;42176;43.240;27.880;2023-04-29T05:56:40;4.40;;;2.63;;
56269;SDS011;42176;43.240;27.880;2023-04-29T05:59:06;4.03;;;2.70;;
56269;SDS011;42176;43.240;27.880;2023-04-29T06:01:32;4.10;;;2.80;;
56269;SDS011;42176;43.240;27.880;2023-04-29T06:03:57;4.15;;;2.65;;
56269;SDS011;42176;43.240;27.880;2023-04-29T06:06:23;3.13;;;2.15;;
56269;SDS011;42176;43.240;27.880;2023-04-29T06:08:48;3.20;;;2.30;;
56269;SDS011;42176;43.240;27.880;2023-04-29T06:11:15;1.92;;;1.73;;
56269;SDS011;42176;43.240;27.880;2023-04-29T06:13:40;3.28;;;2.20;;
56269;SDS011;42176;43.240;27.880;2023-04-29T06:16:06;3.30;;;2.25;;
56269;SDS011;42176;43.240;27.880;2023-04-29T06:18:31;2.50;;;1.95;;
56269;SDS011;42176;43.240;27.880;2023-04-29T06:20:57;3.08;;;2.03;;
56269;SDS011;42176;43.240;27.880;2023-04-29T06:23:22;4.22;;;1.95;;
56269;SDS011;42176;43.240;27.880;2023-04-29T06:25:48;2.25;;;1.80;;
56269;SDS011;42176;43.240;27.880;2023-04-29T06:28:13;4.60;;;2.30;;
56269;SDS011;42176;43.240;27.880;2023-04-29T06:30:39;7.30;;;2.35;;
56269;SDS011;42176;43.240;27.880;2023-04-29T06:33:05;9.45;;;2.78;;
56269;SDS011;42176;43.240;27.880;2023-04-29T06:35:31;6.30;;;1.90;;
56269;SDS011;42176;43.240;27.880;2023-04-29T06:37:57;1.90;;;1.58;;
56269;SDS011;42176;43.240;27.880;2023-04-29T06:40:22;4.05;;;2.22;;
56269;SDS011;42176;43.240;27.880;2023-04-29T06:42:48;4.05;;;1.73;;
56269;SDS011;42176;43.240;27.880;2023-04-29T06:45:13;3.42;;;1.85;;
56269;SDS011;42176;43.240;27.880;2023-04-29T06:47:39;10.65;;;2.00;;
56269;SDS011;42176;43.240;27.880;2023-04-29T06:50:04;5.55;;;1.90;;
56269;SDS011;42176;43.240;27.880;2023-04-29T06:52:30;2.90;;;1.92;;
56269;SDS011;42176;43.240;27.880;2023-04-29T06:54:56;3.22;;;1.77;;
56269;SDS011;42176;43.240;27.880;2023-04-29T06:57:21;4.20;;;1.88;;
56269;SDS011;42176;43.240;27.880;2023-04-29T06:59:46;3.60;;;1.92;;
56269;SDS011;42176;43.240;27.880;2023-04-29T07:02:12;2.80;;;2.20;;
56269;SDS011;42176;43.240;27.880;2023-04-29T07:04:38;2.28;;;1.58;;
56269;SDS011;42176;43.240;27.880;2023-04-29T07:07:03;3.92;;;2.00;;
56269;SDS011;42176;43.240;27.880;2023-04-29T07:09:29;3.40;;;1.88;;
56269;SDS011;42176;43.240;27.880;2023-04-29T07:11:54;5.68;;;1.65;;
56269;SDS011;42176;43.240;27.880;2023-04-29T07:14:20;3.78;;;1.83;;
56269;SDS011;42176;43.240;27.880;2023-04-29T07:16:52;4.65;;;2.20;;
56269;SDS011;42176;43.240;27.880;2023-04-29T07:19:18;3.88;;;1.63;;
56269;SDS011;42176;43.240;27.880;2023-04-29T07:21:43;2.72;;;1.77;;
56269;SDS011;42176;43.240;27.880;2023-04-29T07:24:09;2.00;;;1.80;;
56269;SDS011;42176;43.240;27.880;2023-04-29T07:26:34;2.42;;;1.95;;
56269;SDS011;42176;43.240;27.880;2023-04-29T07:29:00;3.60;;;1.75;;
56269;SDS011;42176;43.240;27.880;2023-04-29T07:31:25;2.05;;;1.88;;
56269;SDS011;42176;43.240;27.880;2023-04-29T07:33:50;1.90;;;1.58;;
56269;SDS011;42176;43.240;27.880;2023-04-29T07:36:17;2.05;;;1.45;;
56269;SDS011;42176;43.240;27.880;2023-04-29T07:38:42;5.43;;;2.05;;
56269;SDS011;42176;43.240;27.880;2023-04-29T07:41:08;3.30;;;1.90;;
56269;SDS011;42176;43.240;27.880;2023-04-29T07:43:33;4.55;;;2.03;;
56269;SDS011;42176;43.240;27.880;2023-04-29T07:45:59;2.38;;;1.98;;
56269;SDS011;42176;43.240;27.880;2023-04-29T07:48:24;1.70;;;1.60;;
56269;SDS011;42176;43.240;27.880;2023-04-29T07:50:50;2.97;;;1.38;;
56269;SDS011;42176;43.240;27.880;2023-04-29T07:53:15;3.97;;;2.00;;
56269;SDS011;42176;43.240;27.880;2023-04-29T07:55:42;3.08;;;1.90;;
56269;SDS011;42176;43.240;27.880;2023-04-29T07:58:07;4.82;;;2.10;;
56269;SDS011;42176;43.240;27.880;2023-04-29T08:00:33;4.82;;;2.00;;
56269;SDS011;42176;43.240;27.880;2023-04-29T08:02:58;4.53;;;1.75;;
56269;SDS011;42176;43.240;27.880;2023-04-29T08:05:24;1.65;;;1.52;;
56269;SDS011;42176;43.240;27.880;2023-04-29T08:07:49;4.30;;;1.40;;
56269;SDS011;42176;43.240;27.880;2023-04-29T08:10:15;2.22;;;1.70;;
56269;SDS011;42176;43.240;27.880;2023-04-29T08:12:44;3.20;;;1.38;;
56269;SDS011;42176;43.240;27.880;2023-04-29T08:15:10;7.88;;;1.85;;
56269;SDS011;42176;43.240;27.880;2023-04-29T08:17:35;4.05;;;2.38;;
56269;SDS011;42176;43.240;27.880;2023-04-29T08:20:01;3.97;;;2.10;;
56269;SDS011;42176;43.240;27.880;2023-04-29T08:22:27;6.20;;;2.13;;
56269;SDS011;42176;43.240;27.880;2023-04-29T08:24:52;2.10;;;2.00;;
56269;SDS011;42176;43.240;27.880;2023-04-29T08:27:17;2.85;;;2.50;;
56269;SDS011;42176;43.240;27.880;2023-04-29T08:29:44;3.70;;;2.42;;
56269;SDS011;42176;43.240;27.880;2023-04-29T08:32:09;2.95;;;1.92;;
56269;SDS011;42176;43.240;27.880;2023-04-29T08:34:35;3.50;;;2.28;;
56269;SDS011;42176;43.240;27.880;2023-04-29T08:37:01;8.77;;;2.33;;
56269;SDS011;42176;43.240;27.880;2023-04-29T08:39:27;3.25;;;2.08;;
56269;SDS011;42176;43.240;27.880;2023-04-29T08:41:57;3.22;;;1.75;;
56269;SDS011;42176;43.240;27.880;2023-04-29T08:44:27;3.40;;;1.80;;
56269;SDS011;42176;43.240;27.880;2023-04-29T08:46:54;6.10;;;2.10;;
56269;SDS011;42176;43.240;27.880;2023-04-29T08:49:20;5.60;;;2.08;;
56269;SDS011;42176;43.240;27.880;2023-04-29T08:51:48;6.38;;;2.97;;
56269;SDS011;42176;43.240;27.880;2023-04-29T08:54:17;1.88;;;1.77;;
56269;SDS011;42176;43.240;27.880;2023-04-29T08:56:44;6.20;;;2.40;;
56269;SDS011;42176;43.240;27.880;2023-04-29T08:59:14;5.38;;;2.28;;
56269;SDS011;42176;43.240;27.880;2023-04-29T09:01:41;3.78;;;2.13;;
56269;SDS011;42176;43.240;27.880;2023-04-29T09:06:38;3.47;;;1.70;;
56269;SDS011;42176;43.240;27.880;2023-04-29T09:09:04;5.18;;;2.20;;
56269;SDS011;42176;43.240;27.880;2023-04-29T09:11:30;4.55;;;2.00;;
56269;SDS011;42176;43.240;27.880;2023-04-29T09:13:59;3.22;;;2.00;;
56269;SDS011;42176;43.240;27.880;2023-04-29T09:19:48;7.93;;;1.90;;
56269;SDS011;42176;43.240;27.880;2023-04-29T09:22:13;3.42;;;2.38;;
56269;SDS011;42176;43.240;27.880;2023-04-29T09:24:39;1.75;;;1.15;;
56269;SDS011;42176;43.240;27.880;2023-04-29T09:27:04;5.72;;;2.28;;
56269;SDS011;42176;43.240;27.880;2023-04-29T09:29:30;4.75;;;2.10;;
56269;SDS011;42176;43.240;27.880;2023-04-29T09:31:57;8.60;;;1.83;;
56269;SDS011;42176;43.240;27.880;2023-04-29T09:34:32;7.32;;;1.77;;
56269;SDS011;42176;43.240;27.880;2023-04-29T09:37:07;4.90;;;1.73;;
56269;SDS011;42176;43.240;27.880;2023-04-29T09:39:48;2.83;;;2.00;;
56269;SDS011;42176;43.240;27.880;2023-04-29T09:42:13;2.63;;;1.67;;
56269;SDS011;42176;43.240;27.880;2023-04-29T09:44:40;2.72;;;1.85;;
56269;SDS011;42176;43.240;27.880;2023-04-29T09:47:07;5.38;;;1.85;;
56269;SDS011;42176;43.240;27.880;2023-04-29T09:49:34;2.92;;;1.92;;
56269;SDS011;42176;43.240;27.880;2023-04-29T09:52:04;5.32;;;1.55;;
56269;SDS011;42176;43.240;27.880;2023-04-29T09:54:32;3.33;;;1.65;;
56269;SDS011;42176;43.240;27.880;2023-04-29T09:57:00;5.85;;;2.00;;
56269;SDS011;42176;43.240;27.880;2023-04-29T09:59:28;3.08;;;1.75;;
56269;SDS011;42176;43.240;27.880;2023-04-29T10:01:55;7.35;;;2.00;;
56269;SDS011;42176;43.240;27.880;2023-04-29T10:04:22;5.82;;;1.75;;
56269;SDS011;42176;43.240;27.880;2023-04-29T10:06:50;7.18;;;1.73;;
56269;SDS011;42176;43.240;27.880;2023-04-29T10:09:17;2.20;;;1.52;;
56269;SDS011;42176;43.240;27.880;2023-04-29T10:11:44;2.90;;;1.73;;
56269;SDS011;42176;43.240;27.880;2023-04-29T10:14:15;2.47;;;1.50;;
56269;SDS011;42176;43.240;27.880;2023-04-29T10:19:41;3.25;;;1.75;;
56269;SDS011;42176;43.240;27.880;2023-04-29T10:22:26;5.97;;;2.55;;
56269;SDS011;42176;43.240;27.880;2023-04-29T10:24:57;2.88;;;1.42;;
56269;SDS011;42176;43.240;27.880;2023-04-29T10:27:25;5.18;;;2.03;;
56269;SDS011;42176;43.240;27.880;2023-04-29T10:29:52;7.25;;;1.83;;
56269;SDS011;42176;43.240;27.880;2023-04-29T10:32:20;3.25;;;1.75;;
56269;SDS011;42176;43.240;27.880;2023-04-29T10:34:46;3.13;;;1.80;;
56269;SDS011;42176;43.240;27.880;2023-04-29T10:37:13;4.05;;;1.88;;
56269;SDS011;42176;43.240;27.880;2023-04-29T10:39:56;4.22;;;1.63;;
56269;SDS011;42176;43.240;27.880;2023-04-29T10:42:48;4.95;;;2.20;;
56269;SDS011;42176;43.240;27.880;2023-04-29T10:45:18;3.53;;;1.92;;
56269;SDS011;42176;43.240;27.880;2023-04-29T10:50:31;5.68;;;2.15;;
56269;SDS011;42176;43.240;27.880;2023-04-29T10:53:00;4.28;;;1.95;;
56269;SDS011;42176;43.240;27.880;2023-04-29T10:55:26;2.67;;;1.70;;
56269;SDS011;42176;43.240;27.880;2023-04-29T10:57:52;5.03;;;2.55;;
56269;SDS011;42176;43.240;27.880;2023-04-29T11:00:27;3.72;;;2.08;;
56269;SDS011;42176;43.240;27.880;2023-04-29T11:03:01;4.90;;;2.20;;
56269;SDS011;42176;43.240;27.880;2023-04-29T11:05:30;10.73;;;2.00;;
56269;SDS011;42176;43.240;27.880;2023-04-29T11:08:10;3.60;;;2.08;;
56269;SDS011;42176;43.240;27.880;2023-04-29T11:10:39;6.10;;;1.75;;
56269;SDS011;42176;43.240;27.880;2023-04-29T11:16:10;3.10;;;1.80;;
56269;SDS011;42176;43.240;27.880;2023-04-29T11:19:02;1.67;;;1.48;;
56269;SDS011;42176;43.240;27.880;2023-04-29T11:21:27;2.33;;;1.67;;
56269;SDS011;42176;43.240;27.880;2023-04-29T11:23:53;3.55;;;1.58;;
56269;SDS011;42176;43.240;27.880;2023-04-29T11:26:19;4.57;;;1.48;;
56269;SDS011;42176;43.240;27.880;2023-04-29T11:28:45;6.10;;;2.15;;
56269;SDS011;42176;43.240;27.880;2023-04-29T11:31:12;5.70;;;2.20;;
56269;SDS011;42176;43.240;27.880;2023-04-29T11:33:37;2.70;;;1.55;;
56269;SDS011;42176;43.240;27.880;2023-04-29T11:36:03;4.72;;;1.95;;
56269;SDS011;42176;43.240;27.880;2023-04-29T11:38:29;5.43;;;1.60;;
56269;SDS011;42176;43.240;27.880;2023-04-29T11:40:55;3.05;;;1.38;;
56269;SDS011;42176;43.240;27.880;2023-04-29T11:43:22;3.58;;;1.50;;
56269;SDS011;42176;43.240;27.880;2023-04-29T11:45:49;1.67;;;1.55;;
56269;SDS011;42176;43.240;27.880;2023-04-29T11:50:44;4.10;;;1.85;;
56269;SDS011;42176;43.240;27.880;2023-04-29T11:53:11;2.17;;;1.77;;
56269;SDS011;42176;43.240;27.880;2023-04-29T11:55:37;5.10;;;1.70;;
56269;SDS011;42176;43.240;27.880;2023-04-29T11:58:05;3.70;;;1.77;;
56269;SDS011;42176;43.240;27.880;2023-04-29T12:00:31;3.58;;;1.35;;
56269;SDS011;42176;43.240;27.880;2023-04-29T12:02:56;2.15;;;1.40;;
56269;SDS011;42176;43.240;27.880;2023-04-29T12:05:24;1.73;;;0.82;;
56269;SDS011;42176;43.240;27.880;2023-04-29T12:07:50;8.13;;;2.05;;
56269;SDS011;42176;43.240;27.880;2023-04-29T12:10:15;4.80;;;1.50;;
56269;SDS011;42176;43.240;27.880;2023-04-29T12:12:41;5.32;;;1.77;;
56269;SDS011;42176;43.240;27.880;2023-04-29T12:15:10;4.05;;;1.85;;
56269;SDS011;42176;43.240;27.880;2023-04-29T12:17:37;5.40;;;1.65;;
56269;SDS011;42176;43.240;27.880;2023-04-29T12:20:03;2.17;;;1.52;;
56269;SDS011;42176;43.240;27.880;2023-04-29T12:22:30;2.03;;;1.35;;
56269;SDS011;42176;43.240;27.880;2023-04-29T12:24:56;5.45;;;1.70;;
56269;SDS011;42176;43.240;27.880;2023-04-29T12:27:22;1.60;;;1.50;;
56269;SDS011;42176;43.240;27.880;2023-04-29T12:29:48;4.78;;;1.50;;
56269;SDS011;42176;43.240;27.880;2023-04-29T12:32:16;3.70;;;1.38;;
56269;SDS011;42176;43.240;27.880;2023-04-29T12:34:46;3.75;;;1.63;;
56269;SDS011;42176;43.240;27.880;2023-04-29T12:37:12;2.58;;;1.88;;
56269;SDS011;42176;43.240;27.880;2023-04-29T12:39:39;3.88;;;1.30;;
56269;SDS011;42176;43.240;27.880;2023-04-29T12:42:05;1.77;;;1.35;;
56269;SDS011;42176;43.240;27.880;2023-04-29T12:44:34;5.10;;;1.73;;
56269;SDS011;42176;43.240;27.880;2023-04-29T12:47:09;8.10;;;2.30;;
56269;SDS011;42176;43.240;27.880;2023-04-29T12:49:35;6.53;;;1.83;;
56269;SDS011;42176;43.240;27.880;2023-04-29T12:52:02;3.13;;;1.50;;
56269;SDS011;42176;43.240;27.880;2023-04-29T12:54:28;5.13;;;1.65;;
56269;SDS011;42176;43.240;27.880;2023-04-29T12:56:54;5.88;;;1.88;;
56269;SDS011;42176;43.240;27.880;2023-04-29T12:59:20;2.50;;;1.63;;
56269;SDS011;42176;43.240;27.880;2023-04-29T13:01:45;1.85;;;1.35;;
56269;SDS011;42176;43.240;27.880;2023-04-29T13:04:11;2.72;;;1.33;;
56269;SDS011;42176;43.240;27.880;2023-04-29T13:06:36;2.88;;;1.33;;
56269;SDS011;42176;43.240;27.880;2023-04-29T13:09:08;2.38;;;1.33;;
56269;SDS011;42176;43.240;27.880;2023-04-29T13:11:36;1.70;;;1.33;;
56269;SDS011;42176;43.240;27.880;2023-04-29T13:14:02;1.33;;;1.20;;
56269;SDS011;42176;43.240;27.880;2023-04-29T13:16:28;2.30;;;1.08;;
56269;SDS011;42176;43.240;27.880;2023-04-29T13:18:54;4.82;;;1.20;;
56269;SDS011;42176;43.240;27.880;2023-04-29T13:21:21;3.05;;;2.45;;
56269;SDS011;42176;43.240;27.880;2023-04-29T13:23:47;10.55;;;2.05;;
56269;SDS011;42176;43.240;27.880;2023-04-29T13:26:13;5.28;;;1.40;;
56269;SDS011;42176;43.240;27.880;2023-04-29T13:28:38;3.22;;;1.80;;
56269;SDS011;42176;43.240;27.880;2023-04-29T13:31:04;3.20;;;1.40;;
56269;SDS011;42176;43.240;27.880;2023-04-29T13:33:29;6.00;;;1.67;;
56269;SDS011;42176;43.240;27.880;2023-04-29T13:35:55;3.45;;;1.75;;
56269;SDS011;42176;43.240;27.880;2023-04-29T13:38:20;4.50;;;1.65;;
56269;SDS011;42176;43.240;27.880;2023-04-29T13:40:46;2.15;;;1.50;;
56269;SDS011;42176;43.240;27.880;2023-04-29T13:43:11;3.22;;;1.48;;
56269;SDS011;42176;43.240;27.880;2023-04-29T13:45:37;3.83;;;1.45;;
56269;SDS011;42176;43.240;27.880;2023-04-29T13:48:02;3.55;;;1.67;;
56269;SDS011;42176;43.240;27.880;2023-04-29T13:50:28;5.18;;;1.75;;
56269;SDS011;42176;43.240;27.880;2023-04-29T13:52:53;8.88;;;2.03;;
56269;SDS011;42176;43.240;27.880;2023-04-29T13:55:19;2.80;;;1.52;;
56269;SDS011;42176;43.240;27.880;2023-04-29T13:57:45;1.65;;;1.40;;
56269;SDS011;42176;43.240;27.880;2023-04-29T14:00:10;2.17;;;1.40;;
56269;SDS011;42176;43.240;27.880;2023-04-29T14:02:37;1.63;;;0.90;;
56269;SDS011;42176;43.240;27.880;2023-04-29T14:05:02;3.65;;;1.48;;
56269;SDS011;42176;43.240;27.880;2023-04-29T14:07:28;0.95;;;0.85;;
56269;SDS011;42176;43.240;27.880;2023-04-29T14:09:53;5.03;;;1.30;;
56269;SDS011;42176;43.240;27.880;2023-04-29T14:12:19;4.25;;;1.75;;
56269;SDS011;42176;43.240;27.880;2023-04-29T14:14:44;3.20;;;1.45;;
56269;SDS011;42176;43.240;27.880;2023-04-29T14:17:10;3.08;;;1.73;;
56269;SDS011;42176;43.240;27.880;2023-04-29T14:19:35;2.05;;;1.10;;
56269;SDS011;42176;43.240;27.880;2023-04-29T14:22:00;1.30;;;1.13;;
56269;SDS011;42176;43.240;27.880;2023-04-29T14:24:26;2.45;;;1.08;;
56269;SDS011;42176;43.240;27.880;2023-04-29T14:26:51;3.03;;;0.98;;
56269;SDS011;42176;43.240;27.880;2023-04-29T14:29:17;2.45;;;1.20;;
56269;SDS011;42176;43.240;27.880;2023-04-29T14:31:43;5.25;;;1.38;;
56269;SDS011;42176;43.240;27.880;2023-04-29T14:34:08;1.67;;;1.20;;
56269;SDS011;42176;43.240;27.880;2023-04-29T14:36:34;1.30;;;1.17;;
56269;SDS011;42176;43.240;27.880;2023-04-29T14:39:00;3.25;;;1.55;;
56269;SDS011;42176;43.240;27.880;2023-04-29T14:41:26;4.30;;;1.17;;
56269;SDS011;42176;43.240;27.880;2023-04-29T14:43:52;3.67;;;2.00;;
56269;SDS011;42176;43.240;27.880;2023-04-29T14:46:17;3.60;;;1.40;;
56269;SDS011;42176;43.240;27.880;2023-04-29T14:48:43;3.03;;;1.77;;
56269;SDS011;42176;43.240;27.880;2023-04-29T14:51:09;3.03;;;1.27;;
56269;SDS011;42176;43.240;27.880;2023-04-29T14:53:35;5.05;;;1.52;;
56269;SDS011;42176;43.240;27.880;2023-04-29T14:56:01;1.88;;;1.40;;
56269;SDS011;42176;43.240;27.880;2023-04-29T14:58:27;4.20;;;1.48;;
56269;SDS011;42176;43.240;27.880;2023-04-29T15:00:53;1.65;;;1.23;;
56269;SDS011;42176;43.240;27.880;2023-04-29T15:03:18;3.85;;;1.40;;
56269;SDS011;42176;43.240;27.880;2023-04-29T15:05:44;2.50;;;0.95;;